sensor_id;sensor_type;location;lat;lon;timestamp;P1;durP1;ratioP1;P2;durP2;ratioP2
50932;SDS011;36921;49.006;9.292;2023-04-24T00:00:53;1.42;;;0.57;;
50932;SDS011;36921;49.006;9.292;2023-04-24T00:03:21;5.10;;;0.60;;
50932;SDS011;36921;49.006;9.292;2023-04-24T00:05:47;1.17;;;0.55;;
50932;SDS011;36921;49.006;9.292;2023-04-24T00:08:12;0.50;;;0.50;;
50932;SDS011;36921;49.006;9.292;2023-04-24T00:10:38;1.15;;;0.68;;
50932;SDS011;36921;49.006;9.292;2023-04-24T00:13:03;1.30;;;0.52;;
50932;SDS011;36921;49.006;9.292;2023-04-24T00:15:29;1.98;;;0.90;;
50932;SDS011;36921;49.006;9.292;2023-04-24T00:17:54;2.22;;;0.80;;
50932;SDS011;36921;49.006;9.292;2023-04-24T00:20:20;2.97;;;1.00;;
50932;SDS011;36921;49.006;9.292;2023-04-24T00:22:46;2.92;;;0.90;;
50932;SDS011;36921;49.006;9.292;2023-04-24T00:25:11;2.05;;;0.82;;
50932;SDS011;36921;49.006;9.292;2023-04-24T00:27:36;1.42;;;0.70;;
50932;SDS011;36921;49.006;9.292;2023-04-24T00:30:03;1.63;;;0.80;;
50932;SDS011;36921;49.006;9.292;2023-04-24T00:32:29;2.90;;;0.60;;
50932;SDS011;36921;49.006;9.292;2023-04-24T00:34:55;5.13;;;0.60;;
50932;SDS011;36921;49.006;9.292;2023-04-24T00:37:20;2.30;;;0.68;;
50932;SDS011;36921;49.006;9.292;2023-04-24T00:39:45;2.58;;;0.45;;
50932;SDS011;36921;49.006;9.292;2023-04-24T00:42:10;0.85;;;0.50;;
50932;SDS011;36921;49.006;9.292;2023-04-24T00:44:36;0.90;;;0.50;;
50932;SDS011;36921;49.006;9.292;2023-04-24T00:47:02;0.90;;;0.50;;
50932;SDS011;36921;49.006;9.292;2023-04-24T00:49:27;1.20;;;0.70;;
50932;SDS011;36921;49.006;9.292;2023-04-24T00:51:53;2.03;;;0.60;;
50932;SDS011;36921;49.006;9.292;2023-04-24T00:54:18;2.15;;;0.57;;
50932;SDS011;36921;49.006;9.292;2023-04-24T00:56:44;2.60;;;0.70;;
50932;SDS011;36921;49.006;9.292;2023-04-24T00:59:11;8.10;;;0.60;;
50932;SDS011;36921;49.006;9.292;2023-04-24T01:01:37;2.35;;;0.70;;
50932;SDS011;36921;49.006;9.292;2023-04-24T01:04:07;0.90;;;0.60;;
50932;SDS011;36921;49.006;9.292;2023-04-24T01:06:33;2.15;;;0.40;;
50932;SDS011;36921;49.006;9.292;2023-04-24T01:08:59;1.52;;;0.60;;
50932;SDS011;36921;49.006;9.292;2023-04-24T01:11:25;4.75;;;0.60;;
50932;SDS011;36921;49.006;9.292;2023-04-24T01:13:51;1.40;;;0.60;;
50932;SDS011;36921;49.006;9.292;2023-04-24T01:16:16;2.28;;;0.77;;
50932;SDS011;36921;49.006;9.292;2023-04-24T01:18:42;1.23;;;0.57;;
50932;SDS011;36921;49.006;9.292;2023-04-24T01:21:09;1.63;;;0.57;;
50932;SDS011;36921;49.006;9.292;2023-04-24T01:23:36;2.55;;;0.40;;
50932;SDS011;36921;49.006;9.292;2023-04-24T01:26:01;1.75;;;0.55;;
50932;SDS011;36921;49.006;9.292;2023-04-24T01:28:27;4.22;;;0.63;;
50932;SDS011;36921;49.006;9.292;2023-04-24T01:30:52;1.85;;;0.40;;
50932;SDS011;36921;49.006;9.292;2023-04-24T01:33:18;2.03;;;0.50;;
50932;SDS011;36921;49.006;9.292;2023-04-24T01:35:46;0.90;;;0.50;;
50932;SDS011;36921;49.006;9.292;2023-04-24T01:38:12;1.40;;;0.70;;
50932;SDS011;36921;49.006;9.292;2023-04-24T01:40:37;0.70;;;0.40;;
50932;SDS011;36921;49.006;9.292;2023-04-24T01:43:03;1.85;;;0.40;;
50932;SDS011;36921;49.006;9.292;2023-04-24T01:45:28;0.70;;;0.30;;
50932;SDS011;36921;49.006;9.292;2023-04-24T01:47:54;0.93;;;0.50;;
50932;SDS011;36921;49.006;9.292;2023-04-24T01:50:19;2.65;;;0.47;;
50932;SDS011;36921;49.006;9.292;2023-04-24T01:52:45;5.65;;;0.47;;
50932;SDS011;36921;49.006;9.292;2023-04-24T01:55:10;1.05;;;0.60;;
50932;SDS011;36921;49.006;9.292;2023-04-24T01:57:35;1.05;;;0.40;;
50932;SDS011;36921;49.006;9.292;2023-04-24T02:00:01;1.17;;;0.43;;
50932;SDS011;36921;49.006;9.292;2023-04-24T02:02:29;0.88;;;0.43;;
50932;SDS011;36921;49.006;9.292;2023-04-24T02:04:54;1.75;;;0.60;;
50932;SDS011;36921;49.006;9.292;2023-04-24T02:07:20;1.73;;;0.65;;
50932;SDS011;36921;49.006;9.292;2023-04-24T02:09:45;2.75;;;0.40;;
50932;SDS011;36921;49.006;9.292;2023-04-24T02:12:11;3.17;;;0.55;;
50932;SDS011;36921;49.006;9.292;2023-04-24T02:14:36;3.65;;;0.60;;
50932;SDS011;36921;49.006;9.292;2023-04-24T02:17:01;0.77;;;0.43;;
50932;SDS011;36921;49.006;9.292;2023-04-24T02:19:27;0.90;;;0.45;;
50932;SDS011;36921;49.006;9.292;2023-04-24T02:21:52;7.03;;;1.00;;
50932;SDS011;36921;49.006;9.292;2023-04-24T02:24:17;0.63;;;0.30;;
50932;SDS011;36921;49.006;9.292;2023-04-24T02:26:42;0.70;;;0.38;;
50932;SDS011;36921;49.006;9.292;2023-04-24T02:29:08;2.47;;;0.50;;
50932;SDS011;36921;49.006;9.292;2023-04-24T02:31:33;4.15;;;0.68;;
50932;SDS011;36921;49.006;9.292;2023-04-24T02:33:58;0.95;;;0.47;;
50932;SDS011;36921;49.006;9.292;2023-04-24T02:36:24;1.60;;;0.50;;
50932;SDS011;36921;49.006;9.292;2023-04-24T02:38:50;1.23;;;0.57;;
50932;SDS011;36921;49.006;9.292;2023-04-24T02:41:15;5.60;;;0.70;;
50932;SDS011;36921;49.006;9.292;2023-04-24T02:43:40;1.10;;;0.40;;
50932;SDS011;36921;49.006;9.292;2023-04-24T02:46:06;1.63;;;0.50;;
50932;SDS011;36921;49.006;9.292;2023-04-24T02:48:31;3.20;;;0.50;;
50932;SDS011;36921;49.006;9.292;2023-04-24T02:50:56;1.20;;;0.40;;
50932;SDS011;36921;49.006;9.292;2023-04-24T02:53:22;3.28;;;0.95;;
50932;SDS011;36921;49.006;9.292;2023-04-24T02:55:48;1.67;;;0.80;;
50932;SDS011;36921;49.006;9.292;2023-04-24T02:58:13;3.40;;;0.80;;
50932;SDS011;36921;49.006;9.292;2023-04-24T03:00:39;4.28;;;0.70;;
50932;SDS011;36921;49.006;9.292;2023-04-24T03:03:04;3.30;;;0.43;;
50932;SDS011;36921;49.006;9.292;2023-04-24T03:05:30;1.58;;;0.50;;
50932;SDS011;36921;49.006;9.292;2023-04-24T03:07:55;1.10;;;0.50;;
50932;SDS011;36921;49.006;9.292;2023-04-24T03:10:21;2.88;;;0.75;;
50932;SDS011;36921;49.006;9.292;2023-04-24T03:12:49;1.33;;;0.50;;
50932;SDS011;36921;49.006;9.292;2023-04-24T03:15:15;3.03;;;0.70;;
50932;SDS011;36921;49.006;9.292;2023-04-24T03:17:40;1.08;;;0.60;;
50932;SDS011;36921;49.006;9.292;2023-04-24T03:20:05;1.17;;;0.65;;
50932;SDS011;36921;49.006;9.292;2023-04-24T03:22:33;1.63;;;0.43;;
50932;SDS011;36921;49.006;9.292;2023-04-24T03:24:58;5.78;;;0.95;;
50932;SDS011;36921;49.006;9.292;2023-04-24T03:27:24;1.90;;;0.57;;
50932;SDS011;36921;49.006;9.292;2023-04-24T03:29:49;1.70;;;0.40;;
50932;SDS011;36921;49.006;9.292;2023-04-24T03:34:44;0.68;;;0.32;;
50932;SDS011;36921;49.006;9.292;2023-04-24T03:37:09;0.63;;;0.28;;
50932;SDS011;36921;49.006;9.292;2023-04-24T03:39:34;3.80;;;0.77;;
50932;SDS011;36921;49.006;9.292;2023-04-24T03:42:00;1.00;;;0.50;;
50932;SDS011;36921;49.006;9.292;2023-04-24T03:44:25;2.15;;;0.38;;
50932;SDS011;36921;49.006;9.292;2023-04-24T03:46:50;2.35;;;0.60;;
50932;SDS011;36921;49.006;9.292;2023-04-24T03:49:16;1.17;;;0.57;;
50932;SDS011;36921;49.006;9.292;2023-04-24T03:51:41;2.45;;;0.50;;
50932;SDS011;36921;49.006;9.292;2023-04-24T03:54:06;1.50;;;0.55;;
50932;SDS011;36921;49.006;9.292;2023-04-24T03:56:31;1.83;;;0.57;;
50932;SDS011;36921;49.006;9.292;2023-04-24T03:58:59;0.80;;;0.50;;
50932;SDS011;36921;49.006;9.292;2023-04-24T04:01:24;1.30;;;0.40;;
50932;SDS011;36921;49.006;9.292;2023-04-24T04:03:49;2.58;;;0.43;;
50932;SDS011;36921;49.006;9.292;2023-04-24T04:06:15;6.13;;;0.50;;
50932;SDS011;36921;49.006;9.292;2023-04-24T04:08:40;4.15;;;0.70;;
50932;SDS011;36921;49.006;9.292;2023-04-24T04:11:05;1.27;;;0.47;;
50932;SDS011;36921;49.006;9.292;2023-04-24T04:13:31;0.73;;;0.50;;
50932;SDS011;36921;49.006;9.292;2023-04-24T04:15:56;3.08;;;0.70;;
50932;SDS011;36921;49.006;9.292;2023-04-24T04:18:21;1.42;;;0.55;;
50932;SDS011;36921;49.006;9.292;2023-04-24T04:20:47;2.33;;;0.50;;
50932;SDS011;36921;49.006;9.292;2023-04-24T04:23:12;2.35;;;0.50;;
50932;SDS011;36921;49.006;9.292;2023-04-24T04:25:37;0.52;;;0.35;;
50932;SDS011;36921;49.006;9.292;2023-04-24T04:28:04;0.93;;;0.50;;
50932;SDS011;36921;49.006;9.292;2023-04-24T04:30:29;0.70;;;0.30;;
50932;SDS011;36921;49.006;9.292;2023-04-24T04:32:57;4.28;;;0.60;;
50932;SDS011;36921;49.006;9.292;2023-04-24T04:35:23;5.38;;;1.70;;
50932;SDS011;36921;49.006;9.292;2023-04-24T04:37:48;2.58;;;0.57;;
50932;SDS011;36921;49.006;9.292;2023-04-24T04:40:14;1.05;;;0.70;;
50932;SDS011;36921;49.006;9.292;2023-04-24T04:42:39;0.70;;;0.50;;
50932;SDS011;36921;49.006;9.292;2023-04-24T04:45:06;0.93;;;0.70;;
50932;SDS011;36921;49.006;9.292;2023-04-24T04:47:33;1.87;;;0.70;;
50932;SDS011;36921;49.006;9.292;2023-04-24T04:49:59;0.98;;;0.73;;
50932;SDS011;36921;49.006;9.292;2023-04-24T04:52:24;4.22;;;0.77;;
50932;SDS011;36921;49.006;9.292;2023-04-24T04:54:51;1.63;;;0.73;;
50932;SDS011;36921;49.006;9.292;2023-04-24T04:57:17;5.57;;;0.75;;
50932;SDS011;36921;49.006;9.292;2023-04-24T04:59:44;2.20;;;0.70;;
50932;SDS011;36921;49.006;9.292;2023-04-24T05:02:10;0.80;;;0.70;;
50932;SDS011;36921;49.006;9.292;2023-04-24T05:04:35;2.75;;;1.05;;
50932;SDS011;36921;49.006;9.292;2023-04-24T05:07:00;1.55;;;0.82;;
50932;SDS011;36921;49.006;9.292;2023-04-24T05:09:26;3.08;;;0.90;;
50932;SDS011;36921;49.006;9.292;2023-04-24T05:11:52;1.20;;;0.82;;
50932;SDS011;36921;49.006;9.292;2023-04-24T05:14:17;1.08;;;0.90;;
50932;SDS011;36921;49.006;9.292;2023-04-24T05:16:44;0.90;;;0.70;;
50932;SDS011;36921;49.006;9.292;2023-04-24T05:19:09;1.38;;;0.70;;
50932;SDS011;36921;49.006;9.292;2023-04-24T05:21:36;2.20;;;1.08;;
50932;SDS011;36921;49.006;9.292;2023-04-24T05:24:02;1.48;;;1.10;;
50932;SDS011;36921;49.006;9.292;2023-04-24T05:26:27;1.35;;;0.75;;
50932;SDS011;36921;49.006;9.292;2023-04-24T05:28:53;2.03;;;0.80;;
50932;SDS011;36921;49.006;9.292;2023-04-24T05:31:18;1.73;;;0.90;;
50932;SDS011;36921;49.006;9.292;2023-04-24T05:33:45;2.63;;;0.73;;
50932;SDS011;36921;49.006;9.292;2023-04-24T05:36:10;0.88;;;0.70;;
50932;SDS011;36921;49.006;9.292;2023-04-24T05:38:36;2.25;;;0.75;;
50932;SDS011;36921;49.006;9.292;2023-04-24T05:41:01;2.10;;;1.20;;
50932;SDS011;36921;49.006;9.292;2023-04-24T05:43:26;2.65;;;1.10;;
50932;SDS011;36921;49.006;9.292;2023-04-24T05:45:52;2.08;;;1.17;;
50932;SDS011;36921;49.006;9.292;2023-04-24T05:48:18;1.25;;;0.77;;
50932;SDS011;36921;49.006;9.292;2023-04-24T05:50:44;3.72;;;1.17;;
50932;SDS011;36921;49.006;9.292;2023-04-24T05:53:10;1.75;;;0.95;;
50932;SDS011;36921;49.006;9.292;2023-04-24T05:55:35;1.50;;;1.10;;
50932;SDS011;36921;49.006;9.292;2023-04-24T05:58:01;1.88;;;0.93;;
50932;SDS011;36921;49.006;9.292;2023-04-24T06:00:26;4.32;;;1.30;;
50932;SDS011;36921;49.006;9.292;2023-04-24T06:02:52;2.20;;;1.08;;
50932;SDS011;36921;49.006;9.292;2023-04-24T06:05:20;4.10;;;1.52;;
50932;SDS011;36921;49.006;9.292;2023-04-24T06:07:46;3.10;;;1.45;;
50932;SDS011;36921;49.006;9.292;2023-04-24T06:10:13;2.17;;;1.20;;
50932;SDS011;36921;49.006;9.292;2023-04-24T06:12:38;2.33;;;1.00;;
50932;SDS011;36921;49.006;9.292;2023-04-24T06:15:04;2.47;;;0.82;;
50932;SDS011;36921;49.006;9.292;2023-04-24T06:17:30;1.73;;;0.98;;
50932;SDS011;36921;49.006;9.292;2023-04-24T06:19:58;2.50;;;1.08;;
50932;SDS011;36921;49.006;9.292;2023-04-24T06:22:23;2.15;;;0.95;;
50932;SDS011;36921;49.006;9.292;2023-04-24T06:24:49;2.08;;;0.70;;
50932;SDS011;36921;49.006;9.292;2023-04-24T06:27:14;2.08;;;0.93;;
50932;SDS011;36921;49.006;9.292;2023-04-24T06:29:40;1.30;;;0.88;;
50932;SDS011;36921;49.006;9.292;2023-04-24T06:32:05;2.97;;;0.80;;
50932;SDS011;36921;49.006;9.292;2023-04-24T06:34:30;2.53;;;0.90;;
50932;SDS011;36921;49.006;9.292;2023-04-24T06:36:57;1.60;;;0.90;;
50932;SDS011;36921;49.006;9.292;2023-04-24T06:39:23;1.10;;;0.75;;
50932;SDS011;36921;49.006;9.292;2023-04-24T06:41:48;1.45;;;0.95;;
50932;SDS011;36921;49.006;9.292;2023-04-24T06:44:13;1.27;;;0.80;;
50932;SDS011;36921;49.006;9.292;2023-04-24T06:46:41;2.35;;;1.23;;
50932;SDS011;36921;49.006;9.292;2023-04-24T06:49:06;1.80;;;1.00;;
50932;SDS011;36921;49.006;9.292;2023-04-24T06:51:31;1.83;;;1.20;;
50932;SDS011;36921;49.006;9.292;2023-04-24T06:53:58;4.60;;;1.38;;
50932;SDS011;36921;49.006;9.292;2023-04-24T06:56:23;1.40;;;1.00;;
50932;SDS011;36921;49.006;9.292;2023-04-24T06:58:50;2.97;;;0.95;;
50932;SDS011;36921;49.006;9.292;2023-04-24T07:01:17;3.17;;;1.42;;
50932;SDS011;36921;49.006;9.292;2023-04-24T07:03:42;3.90;;;1.40;;
50932;SDS011;36921;49.006;9.292;2023-04-24T07:06:08;1.30;;;1.00;;
50932;SDS011;36921;49.006;9.292;2023-04-24T07:08:38;2.75;;;0.80;;
50932;SDS011;36921;49.006;9.292;2023-04-24T07:11:03;1.58;;;0.85;;
50932;SDS011;36921;49.006;9.292;2023-04-24T07:13:29;1.55;;;1.25;;
50932;SDS011;36921;49.006;9.292;2023-04-24T07:15:54;2.58;;;1.10;;
50932;SDS011;36921;49.006;9.292;2023-04-24T07:18:21;3.53;;;1.00;;
50932;SDS011;36921;49.006;9.292;2023-04-24T07:20:47;2.03;;;0.90;;
50932;SDS011;36921;49.006;9.292;2023-04-24T07:23:12;2.17;;;1.10;;
50932;SDS011;36921;49.006;9.292;2023-04-24T07:25:38;2.42;;;1.25;;
50932;SDS011;36921;49.006;9.292;2023-04-24T07:28:04;2.45;;;1.40;;
50932;SDS011;36921;49.006;9.292;2023-04-24T07:30:30;2.40;;;0.93;;
50932;SDS011;36921;49.006;9.292;2023-04-24T07:32:57;3.08;;;1.40;;
50932;SDS011;36921;49.006;9.292;2023-04-24T07:35:23;1.52;;;1.00;;
50932;SDS011;36921;49.006;9.292;2023-04-24T07:37:50;6.45;;;1.48;;
50932;SDS011;36921;49.006;9.292;2023-04-24T07:40:16;2.08;;;1.00;;
50932;SDS011;36921;49.006;9.292;2023-04-24T07:42:42;2.75;;;1.00;;
50932;SDS011;36921;49.006;9.292;2023-04-24T07:45:08;2.25;;;0.93;;
50932;SDS011;36921;49.006;9.292;2023-04-24T07:47:34;4.28;;;0.90;;
50932;SDS011;36921;49.006;9.292;2023-04-24T07:50:01;1.23;;;0.73;;
50932;SDS011;36921;49.006;9.292;2023-04-24T07:52:27;1.60;;;0.90;;
50932;SDS011;36921;49.006;9.292;2023-04-24T07:54:52;9.07;;;1.20;;
50932;SDS011;36921;49.006;9.292;2023-04-24T07:57:23;5.13;;;1.67;;
50932;SDS011;36921;49.006;9.292;2023-04-24T07:59:50;1.13;;;0.90;;
50932;SDS011;36921;49.006;9.292;2023-04-24T08:02:15;1.20;;;0.80;;
50932;SDS011;36921;49.006;9.292;2023-04-24T08:04:41;4.00;;;0.77;;
50932;SDS011;36921;49.006;9.292;2023-04-24T08:07:06;1.40;;;0.75;;
50932;SDS011;36921;49.006;9.292;2023-04-24T08:09:32;2.60;;;0.95;;
50932;SDS011;36921;49.006;9.292;2023-04-24T08:11:57;2.33;;;0.88;;
50932;SDS011;36921;49.006;9.292;2023-04-24T08:14:23;1.13;;;0.65;;
50932;SDS011;36921;49.006;9.292;2023-04-24T08:16:48;1.00;;;0.60;;
50932;SDS011;36921;49.006;9.292;2023-04-24T08:19:14;2.08;;;0.75;;
50932;SDS011;36921;49.006;9.292;2023-04-24T08:21:39;1.88;;;0.40;;
50932;SDS011;36921;49.006;9.292;2023-04-24T08:24:04;0.60;;;0.43;;
50932;SDS011;36921;49.006;9.292;2023-04-24T08:26:32;1.13;;;0.70;;
50932;SDS011;36921;49.006;9.292;2023-04-24T08:28:58;1.40;;;0.32;;
50932;SDS011;36921;49.006;9.292;2023-04-24T08:31:23;2.47;;;0.70;;
50932;SDS011;36921;49.006;9.292;2023-04-24T08:33:50;1.63;;;0.70;;
50932;SDS011;36921;49.006;9.292;2023-04-24T08:36:15;1.35;;;0.50;;
50932;SDS011;36921;49.006;9.292;2023-04-24T08:38:41;2.33;;;1.00;;
50932;SDS011;36921;49.006;9.292;2023-04-24T08:41:07;0.50;;;0.50;;
50932;SDS011;36921;49.006;9.292;2023-04-24T08:43:34;1.80;;;0.60;;
50932;SDS011;36921;49.006;9.292;2023-04-24T08:46:01;2.00;;;0.60;;
50932;SDS011;36921;49.006;9.292;2023-04-24T08:48:27;3.35;;;0.70;;
50932;SDS011;36921;49.006;9.292;2023-04-24T08:50:53;1.67;;;0.65;;
50932;SDS011;36921;49.006;9.292;2023-04-24T08:53:19;1.55;;;0.73;;
50932;SDS011;36921;49.006;9.292;2023-04-24T08:55:46;2.35;;;0.70;;
50932;SDS011;36921;49.006;9.292;2023-04-24T08:58:13;2.28;;;0.70;;
50932;SDS011;36921;49.006;9.292;2023-04-24T09:00:40;2.70;;;0.77;;
50932;SDS011;36921;49.006;9.292;2023-04-24T09:03:11;3.35;;;0.40;;
50932;SDS011;36921;49.006;9.292;2023-04-24T09:05:39;2.15;;;0.52;;
50932;SDS011;36921;49.006;9.292;2023-04-24T09:08:05;2.55;;;0.40;;
50932;SDS011;36921;49.006;9.292;2023-04-24T09:10:33;1.95;;;0.60;;
50932;SDS011;36921;49.006;9.292;2023-04-24T09:12:59;1.88;;;0.70;;
50932;SDS011;36921;49.006;9.292;2023-04-24T09:15:27;1.80;;;0.50;;
50932;SDS011;36921;49.006;9.292;2023-04-24T09:17:57;1.38;;;0.45;;
50932;SDS011;36921;49.006;9.292;2023-04-24T09:20:22;1.17;;;0.40;;
50932;SDS011;36921;49.006;9.292;2023-04-24T09:22:48;0.75;;;0.30;;
50932;SDS011;36921;49.006;9.292;2023-04-24T09:25:13;1.23;;;0.47;;
50932;SDS011;36921;49.006;9.292;2023-04-24T09:27:45;2.10;;;0.45;;
50932;SDS011;36921;49.006;9.292;2023-04-24T09:30:11;1.48;;;0.50;;
50932;SDS011;36921;49.006;9.292;2023-04-24T09:35:42;3.53;;;0.68;;
50932;SDS011;36921;49.006;9.292;2023-04-24T09:38:15;1.90;;;0.60;;
50932;SDS011;36921;49.006;9.292;2023-04-24T09:40:40;1.55;;;0.70;;
50932;SDS011;36921;49.006;9.292;2023-04-24T09:43:09;2.20;;;0.60;;
50932;SDS011;36921;49.006;9.292;2023-04-24T09:45:36;1.65;;;0.63;;
50932;SDS011;36921;49.006;9.292;2023-04-24T09:48:17;26.25;;;1.02;;
50932;SDS011;36921;49.006;9.292;2023-04-24T09:50:45;1.98;;;0.60;;
50932;SDS011;36921;49.006;9.292;2023-04-24T09:55:42;2.22;;;0.63;;
50932;SDS011;36921;49.006;9.292;2023-04-24T09:58:10;2.83;;;0.90;;
50932;SDS011;36921;49.006;9.292;2023-04-24T10:00:37;1.13;;;0.57;;
50932;SDS011;36921;49.006;9.292;2023-04-24T10:03:03;1.00;;;0.70;;
50932;SDS011;36921;49.006;9.292;2023-04-24T10:05:31;2.20;;;0.73;;
50932;SDS011;36921;49.006;9.292;2023-04-24T10:08:02;1.65;;;0.60;;
50932;SDS011;36921;49.006;9.292;2023-04-24T10:10:33;2.20;;;0.88;;
50932;SDS011;36921;49.006;9.292;2023-04-24T10:13:01;1.75;;;0.63;;
50932;SDS011;36921;49.006;9.292;2023-04-24T10:15:30;1.38;;;0.65;;
50932;SDS011;36921;49.006;9.292;2023-04-24T10:17:55;8.68;;;0.90;;
50932;SDS011;36921;49.006;9.292;2023-04-24T10:20:24;2.70;;;0.90;;
50932;SDS011;36921;49.006;9.292;2023-04-24T10:22:52;1.38;;;0.77;;
50932;SDS011;36921;49.006;9.292;2023-04-24T10:25:20;1.10;;;0.60;;
50932;SDS011;36921;49.006;9.292;2023-04-24T10:27:47;2.00;;;0.60;;
50932;SDS011;36921;49.006;9.292;2023-04-24T10:30:14;2.05;;;0.80;;
50932;SDS011;36921;49.006;9.292;2023-04-24T10:32:40;3.13;;;0.90;;
50932;SDS011;36921;49.006;9.292;2023-04-24T10:35:07;1.80;;;0.90;;
50932;SDS011;36921;49.006;9.292;2023-04-24T10:37:35;1.95;;;0.82;;
50932;SDS011;36921;49.006;9.292;2023-04-24T10:40:03;1.95;;;1.00;;
50932;SDS011;36921;49.006;9.292;2023-04-24T10:42:29;4.93;;;1.10;;
50932;SDS011;36921;49.006;9.292;2023-04-24T10:44:55;1.48;;;0.80;;
50932;SDS011;36921;49.006;9.292;2023-04-24T10:47:23;4.55;;;1.10;;
50932;SDS011;36921;49.006;9.292;2023-04-24T10:49:49;1.52;;;0.82;;
50932;SDS011;36921;49.006;9.292;2023-04-24T10:52:16;2.78;;;1.15;;
50932;SDS011;36921;49.006;9.292;2023-04-24T11:00:14;4.07;;;1.00;;
50932;SDS011;36921;49.006;9.292;2023-04-24T11:02:45;1.42;;;0.90;;
50932;SDS011;36921;49.006;9.292;2023-04-24T11:05:18;2.72;;;1.10;;
50932;SDS011;36921;49.006;9.292;2023-04-24T11:10:54;2.65;;;1.10;;
50932;SDS011;36921;49.006;9.292;2023-04-24T11:13:23;3.60;;;1.25;;
50932;SDS011;36921;49.006;9.292;2023-04-24T11:18:45;2.13;;;1.08;;
50932;SDS011;36921;49.006;9.292;2023-04-24T11:21:18;2.85;;;0.80;;
50932;SDS011;36921;49.006;9.292;2023-04-24T11:23:44;1.23;;;0.90;;
50932;SDS011;36921;49.006;9.292;2023-04-24T11:26:11;2.80;;;1.10;;
50932;SDS011;36921;49.006;9.292;2023-04-24T11:28:45;1.20;;;0.93;;
50932;SDS011;36921;49.006;9.292;2023-04-24T11:34:10;3.03;;;0.90;;
50932;SDS011;36921;49.006;9.292;2023-04-24T11:36:37;4.15;;;1.33;;
50932;SDS011;36921;49.006;9.292;2023-04-24T11:39:03;1.98;;;1.33;;
50932;SDS011;36921;49.006;9.292;2023-04-24T11:41:30;2.85;;;1.10;;
50932;SDS011;36921;49.006;9.292;2023-04-24T11:43:56;2.55;;;1.25;;
50932;SDS011;36921;49.006;9.292;2023-04-24T11:46:22;3.28;;;1.30;;
50932;SDS011;36921;49.006;9.292;2023-04-24T11:48:47;3.33;;;1.42;;
50932;SDS011;36921;49.006;9.292;2023-04-24T11:51:13;1.85;;;1.23;;
50932;SDS011;36921;49.006;9.292;2023-04-24T11:53:39;2.97;;;1.02;;
50932;SDS011;36921;49.006;9.292;2023-04-24T11:56:04;1.77;;;1.13;;
50932;SDS011;36921;49.006;9.292;2023-04-24T11:58:37;2.28;;;1.30;;
50932;SDS011;36921;49.006;9.292;2023-04-24T12:01:04;3.05;;;1.77;;
50932;SDS011;36921;49.006;9.292;2023-04-24T12:03:30;3.00;;;1.30;;
50932;SDS011;36921;49.006;9.292;2023-04-24T12:06:08;2.80;;;1.00;;
50932;SDS011;36921;49.006;9.292;2023-04-24T12:08:34;2.05;;;1.10;;
50932;SDS011;36921;49.006;9.292;2023-04-24T12:11:04;2.80;;;1.25;;
50932;SDS011;36921;49.006;9.292;2023-04-24T12:13:34;3.38;;;1.38;;
50932;SDS011;36921;49.006;9.292;2023-04-24T12:16:03;2.20;;;1.00;;
50932;SDS011;36921;49.006;9.292;2023-04-24T12:18:31;3.60;;;0.98;;
50932;SDS011;36921;49.006;9.292;2023-04-24T12:21:14;1.83;;;1.20;;
50932;SDS011;36921;49.006;9.292;2023-04-24T12:23:46;2.28;;;1.30;;
50932;SDS011;36921;49.006;9.292;2023-04-24T12:28:49;3.47;;;1.20;;
50932;SDS011;36921;49.006;9.292;2023-04-24T12:31:18;2.03;;;1.20;;
50932;SDS011;36921;49.006;9.292;2023-04-24T12:33:46;3.35;;;1.52;;
50932;SDS011;36921;49.006;9.292;2023-04-24T12:36:11;5.07;;;1.50;;
50932;SDS011;36921;49.006;9.292;2023-04-24T12:38:37;2.92;;;1.30;;
50932;SDS011;36921;49.006;9.292;2023-04-24T12:41:10;4.43;;;1.48;;
50932;SDS011;36921;49.006;9.292;2023-04-24T12:43:37;2.65;;;1.73;;
50932;SDS011;36921;49.006;9.292;2023-04-24T12:46:02;2.25;;;1.13;;
50932;SDS011;36921;49.006;9.292;2023-04-24T12:48:28;3.17;;;1.40;;
50932;SDS011;36921;49.006;9.292;2023-04-24T12:50:54;2.60;;;1.50;;
50932;SDS011;36921;49.006;9.292;2023-04-24T12:53:22;3.05;;;1.70;;
50932;SDS011;36921;49.006;9.292;2023-04-24T12:55:47;4.93;;;1.35;;
50932;SDS011;36921;49.006;9.292;2023-04-24T12:58:20;4.60;;;1.63;;
50932;SDS011;36921;49.006;9.292;2023-04-24T13:00:46;4.07;;;2.08;;
50932;SDS011;36921;49.006;9.292;2023-04-24T13:03:12;4.43;;;1.98;;
50932;SDS011;36921;49.006;9.292;2023-04-24T13:05:38;2.92;;;1.50;;
50932;SDS011;36921;49.006;9.292;2023-04-24T13:08:03;3.40;;;1.90;;
50932;SDS011;36921;49.006;9.292;2023-04-24T13:10:29;4.28;;;1.92;;
50932;SDS011;36921;49.006;9.292;2023-04-24T13:12:54;2.60;;;1.80;;
50932;SDS011;36921;49.006;9.292;2023-04-24T13:15:20;5.00;;;1.95;;
50932;SDS011;36921;49.006;9.292;2023-04-24T13:17:45;2.97;;;1.55;;
50932;SDS011;36921;49.006;9.292;2023-04-24T13:20:10;1.95;;;1.60;;
50932;SDS011;36921;49.006;9.292;2023-04-24T13:22:36;4.72;;;1.83;;
50932;SDS011;36921;49.006;9.292;2023-04-24T13:25:02;2.17;;;1.83;;
50932;SDS011;36921;49.006;9.292;2023-04-24T13:27:27;2.97;;;1.92;;
50932;SDS011;36921;49.006;9.292;2023-04-24T13:29:52;4.47;;;1.98;;
50932;SDS011;36921;49.006;9.292;2023-04-24T13:32:18;2.42;;;1.77;;
50932;SDS011;36921;49.006;9.292;2023-04-24T13:34:43;7.18;;;2.10;;
50932;SDS011;36921;49.006;9.292;2023-04-24T13:37:08;3.13;;;1.75;;
50932;SDS011;36921;49.006;9.292;2023-04-24T13:39:34;4.20;;;1.70;;
50932;SDS011;36921;49.006;9.292;2023-04-24T13:42:00;3.47;;;1.92;;
50932;SDS011;36921;49.006;9.292;2023-04-24T13:44:25;3.45;;;1.67;;
50932;SDS011;36921;49.006;9.292;2023-04-24T13:46:52;2.72;;;1.40;;
50932;SDS011;36921;49.006;9.292;2023-04-24T13:49:22;3.05;;;1.48;;
50932;SDS011;36921;49.006;9.292;2023-04-24T13:51:49;2.10;;;1.17;;
50932;SDS011;36921;49.006;9.292;2023-04-24T13:54:15;3.30;;;1.50;;
50932;SDS011;36921;49.006;9.292;2023-04-24T13:56:40;7.10;;;1.35;;
50932;SDS011;36921;49.006;9.292;2023-04-24T13:59:06;1.90;;;1.45;;
50932;SDS011;36921;49.006;9.292;2023-04-24T14:01:31;2.28;;;1.15;;
50932;SDS011;36921;49.006;9.292;2023-04-24T14:03:56;1.15;;;1.05;;
50932;SDS011;36921;49.006;9.292;2023-04-24T14:06:22;2.30;;;1.20;;
50932;SDS011;36921;49.006;9.292;2023-04-24T14:08:48;1.95;;;1.05;;
50932;SDS011;36921;49.006;9.292;2023-04-24T14:11:15;3.90;;;1.50;;
50932;SDS011;36921;49.006;9.292;2023-04-24T14:13:41;5.30;;;1.40;;
50932;SDS011;36921;49.006;9.292;2023-04-24T14:16:08;4.05;;;1.30;;
50932;SDS011;36921;49.006;9.292;2023-04-24T14:18:33;3.90;;;1.38;;
50932;SDS011;36921;49.006;9.292;2023-04-24T14:20:59;2.78;;;1.33;;
50932;SDS011;36921;49.006;9.292;2023-04-24T14:23:26;3.00;;;1.58;;
50932;SDS011;36921;49.006;9.292;2023-04-24T14:25:51;1.58;;;1.20;;
50932;SDS011;36921;49.006;9.292;2023-04-24T14:28:18;2.95;;;1.45;;
50932;SDS011;36921;49.006;9.292;2023-04-24T14:30:44;2.20;;;1.20;;
50932;SDS011;36921;49.006;9.292;2023-04-24T14:33:09;2.60;;;1.40;;
50932;SDS011;36921;49.006;9.292;2023-04-24T14:35:35;1.70;;;1.23;;
50932;SDS011;36921;49.006;9.292;2023-04-24T14:38:01;1.42;;;1.00;;
50932;SDS011;36921;49.006;9.292;2023-04-24T14:40:26;1.63;;;1.30;;
50932;SDS011;36921;49.006;9.292;2023-04-24T14:42:51;3.58;;;1.48;;
50932;SDS011;36921;49.006;9.292;2023-04-24T14:45:18;1.52;;;1.27;;
50932;SDS011;36921;49.006;9.292;2023-04-24T14:47:44;2.85;;;1.23;;
50932;SDS011;36921;49.006;9.292;2023-04-24T14:50:09;1.80;;;1.27;;
50932;SDS011;36921;49.006;9.292;2023-04-24T14:52:35;3.10;;;1.50;;
50932;SDS011;36921;49.006;9.292;2023-04-24T14:55:01;3.10;;;1.55;;
50932;SDS011;36921;49.006;9.292;2023-04-24T14:57:26;3.15;;;1.80;;
50932;SDS011;36921;49.006;9.292;2023-04-24T14:59:51;2.25;;;1.58;;
50932;SDS011;36921;49.006;9.292;2023-04-24T15:02:16;5.43;;;1.75;;
50932;SDS011;36921;49.006;9.292;2023-04-24T15:04:42;2.00;;;1.55;;
50932;SDS011;36921;49.006;9.292;2023-04-24T15:07:07;2.72;;;1.63;;